createdAt,value
2022-09-15T00:01:41.696Z,57.85
2022-09-15T00:03:43.993Z,57.92
2022-09-15T00:05:46.688Z,57.62
2022-09-15T00:07:49.265Z,57.55
2022-09-15T00:09:51.413Z,57.72
2022-09-15T00:11:53.433Z,57.31
2022-09-15T00:13:57.264Z,57.31
2022-09-15T00:15:59.362Z,57.30
2022-09-15T00:18:01.478Z,57.12
2022-09-15T00:20:06.308Z,57.05
2022-09-15T00:22:08.467Z,57.05
2022-09-15T00:24:10.775Z,56.85
2022-09-15T00:26:18.101Z,56.71
2022-09-15T00:28:22.041Z,57.14
2022-09-15T00:30:27.027Z,56.64
2022-09-15T00:32:30.419Z,56.95
2022-09-15T00:34:32.570Z,56.93
2022-09-15T00:36:35.038Z,56.92
2022-09-15T00:38:43.558Z,56.61
2022-09-15T00:40:49.101Z,56.74
2022-09-15T00:42:51.258Z,56.44
2022-09-15T00:45:00.131Z,56.36
2022-09-15T00:47:18.783Z,56.21
2022-09-15T00:49:31.074Z,56.01
2022-09-15T00:51:52.048Z,55.89
2022-09-15T00:53:54.630Z,55.64
2022-09-15T00:55:58.314Z,55.67
2022-09-15T00:58:12.094Z,55.79
2022-09-15T01:00:18.464Z,55.70
2022-09-15T01:02:28.366Z,56.03
2022-09-15T01:04:30.704Z,55.69
2022-09-15T01:06:39.419Z,55.92
2022-09-15T01:08:47.606Z,55.63
2022-09-15T01:10:52.363Z,55.96
2022-09-15T01:12:58.498Z,55.87
2022-09-15T01:15:02.043Z,55.57
2022-09-15T01:17:34.735Z,55.78
2022-09-15T01:19:46.500Z,55.74
2022-09-15T01:21:58.783Z,55.72
2022-09-15T01:24:32.233Z,55.51
2022-09-15T01:27:30.492Z,55.12
2022-09-15T01:29:37.391Z,55.30
2022-09-15T01:32:16.664Z,55.27
2022-09-15T01:34:20.817Z,55.03
2022-09-15T01:36:36.034Z,54.84
2022-09-15T01:38:50.426Z,54.56
2022-09-15T01:41:02.985Z,54.65
2022-09-15T01:43:08.096Z,54.29
2022-09-15T01:45:29.443Z,54.52
2022-09-15T01:47:34.407Z,54.39
2022-09-15T01:49:55.766Z,54.39
2022-09-15T01:51:57.966Z,53.94
2022-09-15T01:54:03.784Z,53.84
2022-09-15T01:56:13.254Z,53.66
2022-09-15T01:58:15.590Z,53.40
2022-09-15T02:00:17.935Z,53.68
2022-09-15T02:02:26.429Z,53.38
2022-09-15T02:04:34.006Z,53.23
2022-09-15T02:06:48.440Z,53.06
2022-09-15T02:09:00.670Z,52.75
2022-09-15T02:11:18.655Z,52.75
2022-09-15T02:13:31.116Z,52.62
2022-09-15T02:15:42.418Z,52.55
2022-09-15T02:17:54.448Z,52.63
2022-09-15T02:20:05.683Z,52.52
2022-09-15T02:22:29.357Z,52.12
2022-09-15T02:24:42.546Z,51.86
2022-09-15T02:26:47.737Z,52.00
2022-09-15T02:28:51.281Z,52.07
2022-09-15T02:30:57.674Z,51.90
2022-09-15T02:33:04.315Z,51.74
2022-09-15T02:35:09.734Z,51.98
2022-09-15T02:37:12.809Z,51.75
2022-09-15T02:39:19.631Z,51.51
2022-09-15T02:41:21.843Z,51.82
2022-09-15T02:43:24.291Z,52.05
2022-09-15T02:45:28.190Z,51.89
2022-09-15T02:48:04.926Z,52.05
2022-09-15T02:50:08.034Z,52.03
2022-09-15T02:52:10.084Z,52.14
2022-09-15T02:54:12.486Z,51.97
2022-09-15T02:56:16.778Z,52.17
2022-09-15T02:58:19.172Z,52.07
2022-09-15T03:00:21.313Z,52.14
2022-09-15T03:02:23.679Z,52.37
2022-09-15T03:04:25.640Z,52.13
2022-09-15T03:06:30.955Z,52.45
2022-09-15T03:08:32.904Z,52.27
2022-09-15T03:10:34.855Z,52.26
2022-09-15T03:12:50.574Z,52.37
2022-09-15T03:14:57.841Z,52.40
2022-09-15T03:17:00.802Z,52.33
2022-09-15T03:19:03.744Z,52.29
2022-09-15T03:21:10.057Z,52.40
2022-09-15T03:23:12.332Z,52.56
2022-09-15T03:25:14.583Z,52.49
2022-09-15T03:27:16.768Z,52.47
2022-09-15T03:29:19.272Z,52.29
2022-09-15T03:31:21.564Z,52.24
2022-09-15T03:33:26.114Z,52.30
2022-09-15T03:35:30.929Z,52.57
2022-09-15T03:37:34.036Z,52.41
2022-09-15T03:39:36.258Z,52.34
2022-09-15T03:41:39.642Z,52.46
2022-09-15T03:43:44.858Z,52.18
2022-09-15T03:45:47.631Z,52.30
2022-09-15T03:47:49.798Z,52.23
2022-09-15T03:49:51.831Z,52.41
2022-09-15T03:51:53.886Z,52.33
2022-09-15T03:53:56.093Z,52.28
2022-09-15T03:56:27.258Z,52.25
2022-09-15T03:58:30.875Z,52.13
2022-09-15T04:00:33.157Z,52.19
2022-09-15T04:02:35.447Z,52.26
2022-09-15T04:04:37.462Z,52.46
2022-09-15T04:06:40.280Z,52.27
2022-09-15T04:08:43.015Z,52.37
2022-09-15T04:10:50.565Z,52.27
2022-09-15T04:12:53.676Z,52.25
2022-09-15T04:14:56.199Z,52.19
2022-09-15T04:16:58.251Z,52.12
2022-09-15T04:19:00.573Z,52.26
2022-09-15T04:21:07.127Z,52.55
2022-09-15T04:23:09.995Z,52.30
2022-09-15T04:25:12.222Z,52.56
2022-09-15T04:27:15.851Z,52.71
2022-09-15T04:29:19.433Z,52.51
2022-09-15T04:31:21.738Z,52.67
2022-09-15T04:33:24.002Z,52.70
2022-09-15T04:35:26.440Z,52.63
2022-09-15T04:37:28.470Z,52.83
2022-09-15T04:39:30.745Z,52.65
2022-09-15T04:41:33.848Z,52.72
2022-09-15T04:43:36.054Z,52.93
2022-09-15T04:45:37.974Z,52.67
2022-09-15T04:47:40.512Z,52.91
2022-09-15T04:49:43.516Z,53.14
2022-09-15T04:51:45.739Z,53.26
2022-09-15T04:53:48.451Z,53.55
2022-09-15T04:55:50.656Z,53.18
2022-09-15T04:57:52.601Z,53.50
2022-09-15T04:59:54.519Z,53.62
2022-09-15T05:01:56.881Z,53.49
2022-09-15T05:03:59.238Z,53.76
2022-09-15T05:06:01.278Z,54.07
2022-09-15T05:08:03.757Z,54.42
2022-09-15T05:10:06.784Z,54.46
2022-09-15T05:12:09.151Z,54.28
2022-09-15T05:14:14.273Z,54.33
2022-09-15T05:16:20.562Z,54.50
2022-09-15T05:18:22.583Z,54.38
2022-09-15T05:20:24.718Z,54.77
2022-09-15T05:22:28.239Z,54.58
2022-09-15T05:24:31.016Z,54.81
2022-09-15T05:26:33.219Z,55.02
2022-09-15T05:28:37.294Z,55.24
2022-09-15T05:30:44.204Z,55.06
2022-09-15T05:32:46.733Z,55.60
2022-09-15T05:34:52.053Z,55.42
2022-09-15T05:36:54.397Z,55.25
2022-09-15T05:38:57.575Z,55.43
2022-09-15T05:41:11.073Z,56.05
2022-09-15T05:43:13.329Z,55.37
2022-09-15T05:45:15.700Z,55.72
2022-09-15T05:47:17.788Z,55.94
2022-09-15T05:49:20.345Z,56.36
2022-09-15T05:51:23.289Z,56.08
2022-09-15T05:53:26.478Z,56.18
2022-09-15T05:55:28.930Z,56.47
2022-09-15T05:57:31.411Z,56.33
2022-09-15T05:59:36.156Z,56.62
2022-09-15T06:01:38.329Z,56.73
2022-09-15T06:03:40.858Z,56.95
2022-09-15T06:05:43.409Z,56.78
2022-09-15T06:07:45.840Z,56.95
2022-09-15T06:09:48.166Z,57.34
2022-09-15T06:11:50.427Z,57.48
2022-09-15T06:13:52.982Z,57.39
2022-09-15T06:15:55.128Z,57.81
2022-09-15T06:17:57.372Z,57.55
2022-09-15T06:19:59.445Z,57.88
2022-09-15T06:22:07.315Z,58.10
2022-09-15T06:24:12.214Z,58.66
2022-09-15T06:26:26.358Z,58.91
2022-09-15T06:28:28.385Z,58.32
2022-09-15T06:30:30.586Z,58.64
2022-09-15T06:32:32.700Z,58.90
2022-09-15T06:34:34.925Z,59.33
2022-09-15T06:36:39.050Z,59.42
2022-09-15T06:38:42.831Z,59.61
2022-09-15T06:40:47.852Z,59.72
2022-09-15T06:42:50.861Z,59.52
2022-09-15T06:44:53.280Z,59.98
2022-09-15T06:46:55.479Z,60.33
2022-09-15T06:49:00.827Z,60.62
2022-09-15T06:51:04.118Z,60.54
2022-09-15T06:53:06.267Z,60.78
2022-09-15T06:55:08.628Z,60.82
2022-09-15T06:57:11.086Z,61.18
2022-09-15T06:59:13.910Z,61.44
2022-09-15T07:01:30.624Z,62.48
2022-09-15T07:03:32.748Z,61.33
2022-09-15T07:05:35.013Z,61.43
2022-09-15T07:07:37.110Z,62.45
2022-09-15T07:09:41.284Z,61.88
2022-09-15T07:11:43.535Z,62.10
2022-09-15T07:13:47.258Z,61.80
2022-09-15T07:16:00.925Z,63.08
2022-09-15T07:18:03.142Z,62.56
2022-09-15T07:20:08.430Z,62.49
2022-09-15T07:22:12.172Z,62.38
2022-09-15T07:24:14.766Z,62.34
2022-09-15T07:26:25.407Z,63.19
2022-09-15T07:28:28.914Z,62.22
2022-09-15T07:30:30.989Z,62.94
2022-09-15T07:32:33.527Z,62.49
2022-09-15T07:34:35.717Z,62.79
2022-09-15T07:36:38.064Z,62.91
2022-09-15T07:38:42.579Z,62.63
2022-09-15T07:40:46.287Z,62.67
2022-09-15T07:42:48.509Z,63.29
2022-09-15T07:44:50.731Z,63.05
2022-09-15T07:46:53.246Z,63.14
2022-09-15T07:48:58.503Z,62.81
2022-09-15T07:51:00.749Z,63.16
2022-09-15T07:53:03.728Z,63.17
2022-09-15T07:55:06.205Z,63.59
2022-09-15T07:57:08.289Z,63.15
2022-09-15T07:59:10.401Z,63.60
2022-09-15T08:01:15.033Z,63.72
2022-09-15T08:03:17.214Z,63.81
2022-09-15T08:05:19.617Z,63.94
2022-09-15T08:07:21.599Z,63.60
2022-09-15T08:09:23.960Z,64.03
2022-09-15T08:11:26.954Z,64.47
2022-09-15T08:13:29.463Z,64.51
2022-09-15T08:15:31.584Z,64.46
2022-09-15T08:17:34.906Z,64.33
2022-09-15T08:19:37.046Z,64.28
2022-09-15T08:21:39.185Z,64.43
2022-09-15T08:23:41.886Z,64.49
2022-09-15T08:25:44.028Z,64.22
2022-09-15T08:27:46.417Z,64.22
2022-09-15T08:29:49.007Z,64.12
2022-09-15T08:31:51.157Z,64.14
2022-09-15T08:33:55.507Z,63.97
2022-09-15T08:36:03.175Z,64.33
2022-09-15T08:38:05.129Z,64.37
2022-09-15T08:40:10.118Z,64.10
2022-09-15T08:42:20.887Z,64.14
2022-09-15T08:44:41.175Z,63.77
2022-09-15T08:46:53.529Z,63.71
2022-09-15T08:49:47.398Z,64.20
2022-09-15T08:51:51.557Z,63.50
2022-09-15T08:54:00.679Z,63.39
2022-09-15T08:56:13.451Z,63.36
2022-09-15T08:58:21.688Z,62.93
2022-09-15T09:00:24.112Z,62.99
2022-09-15T09:02:47.067Z,63.20
2022-09-15T09:05:19.571Z,63.25
2022-09-15T09:07:24.522Z,62.98
2022-09-15T09:09:35.392Z,62.84
2022-09-15T09:11:39.924Z,62.74
2022-09-15T09:13:56.740Z,62.97
2022-09-15T09:16:18.634Z,63.36
2022-09-15T09:18:47.331Z,63.30
2022-09-15T09:20:53.678Z,62.77
2022-09-15T09:22:57.977Z,62.67
2022-09-15T09:25:11.660Z,62.67
2022-09-15T09:27:28.962Z,63.08
2022-09-15T09:29:39.299Z,63.14
2022-09-15T09:31:43.702Z,62.84
2022-09-15T09:34:00.817Z,63.03
2022-09-15T09:36:04.184Z,62.61
2022-09-15T09:38:08.577Z,62.33
2022-09-15T09:40:17.302Z,62.35
2022-09-15T09:42:20.163Z,62.08
2022-09-15T09:44:32.100Z,62.20
2022-09-15T09:46:34.753Z,62.10
2022-09-15T09:48:37.005Z,62.20
2022-09-15T09:50:45.012Z,62.60
2022-09-15T09:52:56.319Z,62.38
2022-09-15T09:55:24.422Z,62.41
2022-09-15T09:57:40.548Z,62.74
2022-09-15T09:59:48.133Z,62.55
2022-09-15T10:02:19.374Z,62.76
2022-09-15T10:04:23.241Z,62.93
2022-09-15T10:06:31.121Z,62.87
2022-09-15T10:08:35.633Z,62.88
2022-09-15T10:10:37.930Z,63.02
2022-09-15T10:12:41.728Z,62.77
2022-09-15T10:14:52.406Z,62.69
2022-09-15T10:17:15.739Z,62.82
2022-09-15T10:19:18.678Z,62.77
2022-09-15T10:21:24.827Z,62.70
2022-09-15T10:23:30.134Z,62.46
2022-09-15T10:25:58.087Z,62.65
2022-09-15T10:28:17.937Z,63.05
2022-09-15T10:30:20.432Z,62.73
2022-09-15T10:32:31.570Z,62.88
2022-09-15T10:34:33.629Z,62.65
2022-09-15T10:36:36.186Z,62.46
2022-09-15T10:38:44.757Z,62.59
2022-09-15T10:41:11.953Z,62.30
2022-09-15T10:43:28.150Z,62.53
2022-09-15T10:45:39.927Z,62.22
2022-09-15T10:48:07.265Z,62.09
2022-09-15T10:50:25.274Z,61.26
2022-09-15T10:53:02.034Z,61.42
2022-09-15T10:55:10.832Z,60.95
2022-09-15T10:57:59.159Z,61.12
2022-09-15T11:00:11.456Z,60.79
2022-09-15T11:02:38.188Z,60.23
2022-09-15T11:04:55.492Z,60.24
2022-09-15T11:07:29.346Z,59.65
2022-09-15T11:09:39.779Z,59.96
2022-09-15T11:11:53.957Z,60.07
2022-09-15T11:14:25.373Z,60.21
2022-09-15T11:16:51.678Z,59.88
2022-09-15T11:19:15.227Z,59.45
2022-09-15T11:21:38.431Z,58.95
2022-09-15T11:23:43.495Z,59.54
2022-09-15T11:25:51.613Z,58.44
2022-09-15T11:28:04.788Z,57.95
2022-09-15T11:30:16.660Z,58.65
2022-09-15T11:32:26.183Z,58.96
2022-09-15T11:34:36.669Z,57.84
2022-09-15T11:36:49.899Z,57.74
2022-09-15T11:39:06.269Z,57.63
2022-09-15T11:41:44.105Z,57.08
2022-09-15T11:44:04.276Z,57.35
2022-09-15T11:46:16.181Z,57.18
2022-09-15T11:48:45.439Z,57.33
2022-09-15T11:50:52.523Z,57.22
2022-09-15T11:53:18.603Z,57.10
2022-09-15T11:55:30.485Z,57.75
2022-09-15T11:57:43.468Z,57.59
2022-09-15T12:00:07.172Z,57.65
2022-09-15T12:02:52.157Z,57.68
2022-09-15T12:05:13.757Z,57.83
2022-09-15T12:07:23.823Z,57.62
2022-09-15T12:09:26.851Z,57.99
2022-09-15T12:11:32.044Z,58.12
2022-09-15T12:13:34.775Z,58.16
2022-09-15T12:15:38.002Z,58.19
2022-09-15T12:17:56.625Z,57.94
2022-09-15T12:20:17.686Z,57.79
2022-09-15T12:22:43.377Z,58.12
2022-09-15T12:25:03.639Z,57.89
2022-09-15T12:27:06.192Z,58.15
2022-09-15T12:29:31.830Z,58.29
2022-09-15T12:31:38.748Z,58.15
2022-09-15T12:34:01.465Z,58.09
2022-09-15T12:36:34.611Z,56.85
2022-09-15T12:38:36.908Z,57.49
2022-09-15T12:40:40.614Z,57.30
2022-09-15T12:42:46.512Z,57.06
2022-09-15T12:45:19.820Z,56.64
2022-09-15T12:48:12.052Z,56.74
2022-09-15T12:50:17.011Z,56.68
2022-09-15T12:52:22.503Z,56.49
2022-09-15T12:54:31.099Z,56.73
2022-09-15T12:56:34.729Z,56.42
2022-09-15T12:58:41.060Z,56.77
2022-09-15T13:01:13.850Z,56.14
2022-09-15T13:03:28.470Z,55.69
2022-09-15T13:05:42.340Z,55.45
2022-09-15T13:07:56.788Z,55.70
2022-09-15T13:10:13.336Z,55.24
2022-09-15T13:12:17.893Z,54.90
2022-09-15T13:14:33.117Z,54.61
2022-09-15T13:16:46.805Z,54.14
2022-09-15T13:18:55.092Z,53.97
2022-09-15T13:21:06.529Z,53.58
2022-09-15T13:23:14.375Z,54.02
2022-09-15T13:25:22.053Z,53.73
2022-09-15T13:27:29.606Z,53.50
2022-09-15T13:29:33.287Z,53.97
2022-09-15T13:32:19.753Z,54.08
2022-09-15T13:39:46.795Z,53.46
2022-09-15T13:42:00.784Z,53.91
2022-09-15T13:44:21.636Z,53.80
2022-09-15T13:46:35.644Z,53.89
2022-09-15T13:48:59.464Z,53.95
2022-09-15T13:51:09.273Z,53.69
2022-09-15T13:53:24.456Z,53.95
2022-09-15T13:55:34.247Z,53.70
2022-09-15T14:00:13.675Z,54.10
2022-09-15T14:02:21.191Z,54.01
2022-09-15T14:04:31.624Z,53.81
2022-09-15T14:06:36.785Z,54.11
2022-09-15T14:08:41.060Z,54.32
2022-09-15T14:10:51.870Z,53.89
2022-09-15T14:12:59.194Z,54.01
2022-09-15T14:15:07.869Z,53.90
2022-09-15T14:17:29.561Z,54.00
2022-09-15T14:19:36.026Z,54.08
2022-09-15T14:21:49.906Z,53.82
2022-09-15T14:23:55.270Z,53.99
2022-09-15T14:26:02.412Z,53.95
2022-09-15T14:28:05.862Z,54.13
2022-09-15T14:30:17.769Z,54.23
2022-09-15T14:32:21.406Z,54.25
2022-09-15T14:34:26.283Z,54.14
2022-09-15T14:36:33.639Z,54.08
2022-09-15T14:38:36.341Z,53.96
2022-09-15T14:40:40.293Z,54.14
2022-09-15T14:42:44.723Z,54.04
2022-09-15T14:47:28.695Z,53.84
2022-09-15T14:49:30.877Z,53.71
2022-09-15T14:51:34.469Z,53.61
2022-09-15T14:53:40.503Z,53.67
2022-09-15T14:56:07.821Z,53.39
2022-09-15T14:58:23.807Z,53.83
2022-09-15T15:00:30.274Z,53.62
2022-09-15T15:02:53.694Z,53.18
2022-09-15T15:05:05.741Z,53.25
2022-09-15T15:07:20.450Z,53.41
2022-09-15T15:09:49.402Z,53.68
2022-09-15T15:11:57.227Z,53.56
2022-09-15T15:14:00.243Z,54.14
2022-09-15T15:16:10.096Z,53.97
2022-09-15T15:18:32.112Z,54.10
2022-09-15T15:20:34.524Z,53.93
2022-09-15T15:22:38.273Z,54.00
2022-09-15T15:24:43.988Z,54.47
2022-09-15T15:26:49.340Z,54.00
2022-09-15T15:28:51.863Z,54.40
2022-09-15T15:31:06.863Z,54.13
2022-09-15T15:33:25.585Z,54.14
2022-09-15T15:35:29.080Z,53.81
2022-09-15T15:37:34.116Z,53.64
2022-09-15T15:39:36.931Z,53.78
2022-09-15T15:41:42.262Z,53.93
2022-09-15T15:43:55.895Z,53.30
2022-09-15T15:46:03.928Z,53.58
2022-09-15T15:48:06.839Z,53.51
2022-09-15T15:50:14.048Z,53.87
2022-09-15T15:52:16.804Z,53.55
2022-09-15T15:54:19.562Z,53.31
2022-09-15T15:56:25.747Z,53.11
2022-09-15T15:58:28.489Z,53.04
2022-09-15T16:00:39.133Z,52.77
2022-09-15T16:02:41.338Z,52.95
2022-09-15T16:04:43.569Z,52.60
2022-09-15T16:07:04.752Z,51.69
2022-09-15T16:09:07.121Z,52.37
2022-09-15T16:11:12.546Z,52.01
2022-09-15T16:13:20.127Z,51.94
2022-09-15T16:15:24.563Z,51.98
2022-09-15T16:17:26.620Z,51.88
2022-09-15T16:19:32.569Z,51.97
2022-09-15T16:21:42.578Z,51.41
2022-09-15T16:23:45.096Z,51.43
2022-09-15T16:25:56.456Z,51.53
2022-09-15T16:27:59.069Z,51.48
2022-09-15T16:30:01.386Z,52.19
2022-09-15T16:32:06.353Z,52.50
2022-09-15T16:34:20.847Z,53.23
2022-09-15T16:36:23.407Z,53.31
2022-09-15T16:38:26.092Z,53.44
2022-09-15T16:40:31.719Z,53.56
2022-09-15T16:42:34.060Z,53.81
2022-09-15T16:44:36.648Z,54.23
2022-09-15T16:46:39.035Z,54.63
2022-09-15T16:48:43.358Z,54.74
2022-09-15T16:51:23.070Z,54.96
2022-09-15T16:53:18.010Z,55.11
2022-09-15T16:55:25.952Z,55.10
2022-09-15T16:57:33.251Z,55.57
2022-09-15T16:59:36.294Z,55.74
2022-09-15T17:01:39.514Z,55.38
2022-09-15T17:03:43.544Z,55.37
2022-09-15T17:05:50.261Z,56.10
2022-09-15T17:07:52.488Z,56.24
2022-09-15T17:09:54.698Z,56.53
2022-09-15T17:11:56.891Z,56.39
2022-09-15T17:13:59.151Z,56.35
2022-09-15T17:16:02.174Z,56.55
2022-09-15T17:18:05.860Z,56.96
2022-09-15T17:20:08.426Z,57.35
2022-09-15T17:22:13.903Z,57.16
2022-09-15T17:24:17.799Z,57.57
2022-09-15T17:26:24.654Z,57.70
2022-09-15T17:28:31.965Z,57.60
2022-09-15T17:30:36.046Z,58.22
2022-09-15T17:32:38.369Z,57.79
2022-09-15T17:34:41.138Z,58.24
2022-09-15T17:36:43.295Z,58.26
2022-09-15T17:38:46.176Z,58.54
2022-09-15T17:40:50.169Z,58.56
2022-09-15T17:42:52.373Z,58.83
2022-09-15T17:44:54.706Z,59.31
2022-09-15T17:46:57.007Z,59.07
2022-09-15T17:48:59.372Z,59.60
2022-09-15T17:51:01.866Z,59.97
2022-09-15T17:53:12.685Z,59.92
2022-09-15T17:55:18.990Z,60.28
2022-09-15T17:57:28.875Z,61.11
2022-09-15T17:59:31.366Z,60.83
2022-09-15T18:01:33.564Z,60.65
2022-09-15T18:03:37.370Z,61.27
2022-09-15T18:05:39.572Z,61.21
2022-09-15T18:07:41.956Z,61.41
2022-09-15T18:09:44.333Z,61.20
2022-09-15T18:11:49.586Z,61.87
2022-09-15T18:13:54.281Z,60.90
2022-09-15T18:15:56.643Z,61.18
2022-09-15T18:18:04.592Z,61.17
2022-09-15T18:20:07.190Z,61.22
2022-09-15T18:22:09.547Z,61.58
2022-09-15T18:24:14.821Z,62.30
2022-09-15T18:26:17.112Z,61.84
2022-09-15T18:28:20.044Z,61.76
2022-09-15T18:30:25.349Z,61.97
2022-09-15T18:32:27.544Z,62.22
2022-09-15T18:34:30.235Z,62.76
2022-09-15T18:36:32.360Z,62.54
2022-09-15T18:38:34.504Z,62.28
2022-09-15T18:40:36.770Z,62.84
2022-09-15T18:42:39.654Z,63.25
2022-09-15T18:44:41.847Z,63.58
2022-09-15T18:46:44.136Z,63.89
2022-09-15T18:48:46.883Z,63.83
2022-09-15T18:50:51.927Z,63.38
2022-09-15T18:52:54.193Z,63.32
2022-09-15T18:54:56.370Z,63.54
2022-09-15T18:56:58.450Z,63.50
2022-09-15T18:59:00.874Z,63.38
2022-09-15T19:01:03.595Z,63.00
2022-09-15T19:03:09.646Z,63.37
2022-09-15T19:05:12.656Z,63.21
2022-09-15T19:07:14.666Z,63.50
2022-09-15T19:09:16.642Z,62.88
2022-09-15T19:11:19.943Z,63.24
2022-09-15T19:13:22.673Z,63.10
2022-09-15T19:15:25.038Z,62.74
2022-09-15T19:17:27.087Z,62.53
2022-09-15T19:19:30.117Z,62.53
2022-09-15T19:21:32.412Z,63.05
2022-09-15T19:23:36.085Z,62.76
2022-09-15T19:25:40.518Z,62.62
2022-09-15T19:27:43.258Z,63.12
2022-09-15T19:29:46.366Z,62.51
2022-09-15T19:31:48.527Z,62.40
2022-09-15T19:33:51.014Z,62.98
2022-09-15T19:36:10.534Z,62.97
2022-09-15T19:38:15.961Z,62.61
2022-09-15T19:40:18.445Z,63.15
2022-09-15T19:42:20.655Z,63.01
2022-09-15T19:44:22.751Z,62.80
2022-09-15T19:46:25.761Z,62.75
2022-09-15T19:48:28.034Z,62.55
2022-09-15T19:50:29.984Z,62.74
2022-09-15T19:52:32.511Z,62.62
2022-09-15T19:54:34.896Z,62.57
2022-09-15T19:56:37.102Z,62.67
2022-09-15T19:58:39.155Z,62.89
2022-09-15T20:00:41.159Z,63.08
2022-09-15T20:02:47.554Z,63.56
2022-09-15T20:04:50.648Z,62.94
2022-09-15T20:06:52.868Z,63.01
2022-09-15T20:08:58.038Z,63.32
2022-09-15T20:11:00.072Z,63.13
2022-09-15T20:13:02.550Z,63.28
2022-09-15T20:15:05.025Z,63.15
2022-09-15T20:17:07.313Z,62.83
2022-09-15T20:19:09.345Z,63.11
2022-09-15T20:21:26.903Z,63.26
2022-09-15T20:23:37.131Z,63.15
2022-09-15T20:25:39.239Z,63.22
2022-09-15T20:27:42.311Z,62.98
2022-09-15T20:29:44.373Z,63.03
2022-09-15T20:31:46.799Z,63.38
2022-09-15T20:33:50.556Z,63.25
2022-09-15T20:35:53.696Z,63.26
2022-09-15T20:37:55.792Z,63.37
2022-09-15T20:39:58.970Z,64.15
2022-09-15T20:42:01.050Z,64.31
2022-09-15T20:44:03.832Z,63.70
2022-09-15T20:46:08.888Z,63.92
2022-09-15T20:48:13.191Z,63.55
2022-09-15T20:50:17.210Z,63.38
2022-09-15T20:52:19.270Z,63.42
2022-09-15T20:54:21.482Z,63.55
2022-09-15T20:56:26.140Z,63.40
2022-09-15T20:58:28.467Z,63.83
2022-09-15T21:00:33.938Z,63.98
2022-09-15T21:02:36.437Z,64.26
2022-09-15T21:04:38.442Z,64.01
2022-09-15T21:06:42.918Z,64.11
2022-09-15T21:08:46.376Z,64.11
2022-09-15T21:10:49.587Z,64.31
2022-09-15T21:12:51.573Z,64.62
2022-09-15T21:14:54.878Z,64.32
2022-09-15T21:16:56.984Z,64.38
2022-09-15T21:18:59.288Z,64.80
2022-09-15T21:21:05.219Z,64.45
2022-09-15T21:23:07.491Z,64.51
2022-09-15T21:25:09.526Z,64.76
2022-09-15T21:27:27.059Z,64.44
2022-09-15T21:29:29.640Z,64.98
2022-09-15T21:31:33.548Z,64.50
2022-09-15T21:33:36.974Z,64.62
2022-09-15T21:35:41.133Z,64.78
2022-09-15T21:37:43.628Z,64.80
2022-09-15T21:39:48.593Z,65.18
2022-09-15T21:41:50.825Z,65.13
2022-09-15T21:43:56.030Z,65.15
2022-09-15T21:45:59.073Z,65.02
2022-09-15T21:48:01.412Z,64.66
2022-09-15T21:50:03.778Z,65.14
2022-09-15T21:52:05.935Z,64.97
2022-09-15T21:54:09.128Z,65.26
2022-09-15T21:56:12.217Z,65.04
2022-09-15T21:58:17.578Z,64.88
2022-09-15T22:00:19.779Z,65.11
2022-09-15T22:02:22.441Z,64.84
2022-09-15T22:04:24.661Z,64.78
2022-09-15T22:06:32.545Z,65.25
2022-09-15T22:08:35.118Z,65.14
2022-09-15T22:10:38.262Z,64.91
2022-09-15T22:12:40.385Z,64.89
2022-09-15T22:14:42.632Z,65.18
2022-09-15T22:16:45.078Z,65.13
2022-09-15T22:18:47.738Z,64.78
2022-09-15T22:20:49.799Z,64.94
2022-09-15T22:22:51.972Z,64.83
2022-09-15T22:24:54.449Z,64.69
2022-09-15T22:26:56.632Z,64.97
2022-09-15T22:29:00.099Z,64.98
2022-09-15T22:31:06.224Z,64.99
2022-09-15T22:33:10.814Z,64.97
2022-09-15T22:35:13.290Z,65.06
2022-09-15T22:37:15.369Z,64.94
2022-09-15T22:39:17.699Z,65.06
2022-09-15T22:41:21.012Z,65.23
2022-09-15T22:43:23.921Z,65.45
2022-09-15T22:45:25.902Z,65.41
2022-09-15T22:47:28.304Z,65.43
2022-09-15T22:49:30.602Z,65.25
2022-09-15T22:51:32.839Z,65.37
2022-09-15T22:53:35.186Z,65.56
2022-09-15T22:55:37.658Z,65.21
2022-09-15T22:57:39.790Z,65.60
2022-09-15T22:59:41.781Z,65.54
2022-09-15T23:01:44.081Z,65.46
2022-09-15T23:03:50.716Z,65.83
2022-09-15T23:05:58.399Z,65.88
2022-09-15T23:08:00.812Z,65.68
2022-09-15T23:10:03.294Z,65.51
2022-09-15T23:12:05.499Z,65.79
2022-09-15T23:14:13.635Z,66.27
2022-09-15T23:16:16.322Z,66.10
2022-09-15T23:18:18.314Z,66.22
2022-09-15T23:20:20.288Z,65.77
2022-09-15T23:22:22.610Z,65.94
2022-09-15T23:24:26.134Z,66.12
2022-09-15T23:26:28.296Z,66.13
2022-09-15T23:28:31.139Z,66.53
2022-09-15T23:30:33.019Z,66.09
2022-09-15T23:32:35.534Z,66.20
2022-09-15T23:34:37.721Z,66.34
2022-09-15T23:36:40.019Z,66.41
2022-09-15T23:38:44.575Z,66.07
2022-09-15T23:40:48.459Z,66.38
2022-09-15T23:42:50.836Z,66.40
2022-09-15T23:44:55.848Z,66.29
2022-09-15T23:46:57.982Z,66.41
2022-09-15T23:49:00.339Z,66.38
2022-09-15T23:51:02.621Z,66.42
2022-09-15T23:53:05.465Z,67.00
2022-09-15T23:55:08.468Z,66.43
2022-09-15T23:57:11.972Z,66.58
2022-09-15T23:59:14.184Z,66.64
